createdAt,value
2018-10-06T00:00:28.778Z,13.47
2018-10-06T00:02:57.433Z,12.50
2018-10-06T00:05:26.149Z,13.53
2018-10-06T00:07:55.193Z,12.03
2018-10-06T00:10:23.813Z,12.50
2018-10-06T00:12:52.439Z,13.83
2018-10-06T00:15:21.211Z,12.13
2018-10-06T00:17:49.855Z,11.73
2018-10-06T00:20:18.449Z,10.63
2018-10-06T00:22:47.254Z,14.87
2018-10-06T00:25:15.858Z,15.80
2018-10-06T00:27:44.469Z,13.10
2018-10-06T00:30:13.208Z,13.07
2018-10-06T00:32:41.849Z,14.30
2018-10-06T00:35:10.448Z,12.50
2018-10-06T00:37:39.054Z,12.77
2018-10-06T00:40:07.683Z,11.63
2018-10-06T00:42:36.302Z,13.33
2018-10-06T00:45:05.203Z,12.70
2018-10-06T00:47:33.816Z,13.80
2018-10-06T00:50:02.434Z,12.87
2018-10-06T00:52:31.019Z,11.60
2018-10-06T00:54:59.562Z,11.93
2018-10-06T00:57:28.180Z,11.57
2018-10-06T00:59:56.727Z,11.43
2018-10-06T01:02:25.369Z,11.53
2018-10-06T01:04:53.919Z,11.17
2018-10-06T01:07:22.680Z,12.20
2018-10-06T01:09:51.268Z,13.37
2018-10-06T01:12:19.936Z,13.17
2018-10-06T01:14:48.537Z,12.57
2018-10-06T01:17:17.143Z,13.63
2018-10-06T01:19:45.703Z,12.20
2018-10-06T01:22:14.298Z,11.47
2018-10-06T01:24:42.878Z,12.93
2018-10-06T01:27:11.466Z,13.30
2018-10-06T01:29:40.044Z,11.93
2018-10-06T01:32:08.639Z,11.93
2018-10-06T01:34:37.205Z,11.63
2018-10-06T01:37:05.837Z,11.47
2018-10-06T01:39:34.423Z,12.00
2018-10-06T01:42:03.146Z,10.73
2018-10-06T01:44:31.706Z,10.33
2018-10-06T01:47:00.291Z,9.47
2018-10-06T01:49:28.905Z,10.20
2018-10-06T01:51:57.515Z,10.67
2018-10-06T01:54:26.144Z,9.77
2018-10-06T01:56:54.722Z,10.00
2018-10-06T01:59:23.301Z,9.93
2018-10-06T02:01:51.879Z,9.90
2018-10-06T02:04:24.024Z,9.63
2018-10-06T02:06:53.133Z,10.00
2018-10-06T02:09:21.779Z,10.40
2018-10-06T02:11:50.729Z,10.97
2018-10-06T02:14:19.327Z,10.97
2018-10-06T02:16:48.204Z,10.40
2018-10-06T02:19:16.820Z,10.77
2018-10-06T02:21:45.386Z,10.93
2018-10-06T02:24:13.973Z,10.83
2018-10-06T02:26:42.526Z,9.87
2018-10-06T02:29:11.113Z,9.87
2018-10-06T02:31:39.689Z,10.47
2018-10-06T02:34:08.284Z,10.70
2018-10-06T02:36:36.851Z,10.70
2018-10-06T02:39:06.301Z,11.40
2018-10-06T02:41:34.902Z,11.13
2018-10-06T02:44:03.523Z,11.27
2018-10-06T02:46:32.113Z,10.43
2018-10-06T02:49:00.727Z,9.97
2018-10-06T02:51:29.328Z,12.13
2018-10-06T02:53:57.936Z,10.90
2018-10-06T02:56:26.522Z,10.10
2018-10-06T02:58:55.168Z,9.90
2018-10-06T03:01:23.718Z,9.50
2018-10-06T03:03:52.326Z,9.67
2018-10-06T03:06:20.888Z,10.90
2018-10-06T03:08:49.524Z,10.50
2018-10-06T03:11:18.125Z,11.17
2018-10-06T03:13:46.720Z,10.23
2018-10-06T03:16:15.327Z,10.17
2018-10-06T03:18:43.948Z,11.97
2018-10-06T03:21:12.543Z,11.30
2018-10-06T03:23:41.138Z,11.77
2018-10-06T03:26:09.761Z,10.80
2018-10-06T03:28:38.385Z,11.40
2018-10-06T03:31:06.944Z,11.27
2018-10-06T03:33:35.500Z,10.80
2018-10-06T03:36:04.109Z,10.80
2018-10-06T03:38:32.692Z,10.60
2018-10-06T03:41:01.264Z,11.07
2018-10-06T03:43:29.873Z,10.73
2018-10-06T03:45:58.548Z,10.23
2018-10-06T03:48:27.129Z,10.17
2018-10-06T03:50:55.736Z,10.50
2018-10-06T03:53:24.303Z,10.00
2018-10-06T03:55:52.895Z,9.77
2018-10-06T03:58:21.514Z,9.20
2018-10-06T04:00:50.108Z,10.23
2018-10-06T04:03:18.670Z,9.37
2018-10-06T04:05:47.276Z,9.80
2018-10-06T04:08:16.030Z,9.38
2018-10-06T04:10:44.631Z,9.03
2018-10-06T04:13:13.254Z,9.47
2018-10-06T04:15:41.898Z,9.93
2018-10-06T04:18:10.455Z,9.50
2018-10-06T04:20:39.122Z,10.73
2018-10-06T04:23:07.717Z,12.73
2018-10-06T04:25:36.287Z,12.63
2018-10-06T04:28:04.866Z,11.80
2018-10-06T04:30:33.463Z,10.80
2018-10-06T04:33:02.037Z,9.90
2018-10-06T04:35:31.604Z,10.60
2018-10-06T04:38:00.161Z,10.27
2018-10-06T04:40:28.740Z,10.20
2018-10-06T04:42:57.293Z,10.67
2018-10-06T04:45:25.860Z,10.30
2018-10-06T04:47:54.430Z,9.37
2018-10-06T04:50:23.034Z,7.33
2018-10-06T04:52:51.607Z,9.50
2018-10-06T04:55:20.228Z,8.77
2018-10-06T04:57:48.791Z,10.40
2018-10-06T05:00:17.453Z,9.73
2018-10-06T05:02:46.000Z,9.77
2018-10-06T05:05:14.583Z,9.53
2018-10-06T05:07:43.139Z,9.37
2018-10-06T05:10:11.709Z,9.90
2018-10-06T05:12:40.622Z,10.53
2018-10-06T05:15:09.170Z,9.83
2018-10-06T05:17:37.867Z,11.37
2018-10-06T05:20:06.739Z,10.30
2018-10-06T05:22:35.912Z,11.40
2018-10-06T05:25:04.536Z,10.87
2018-10-06T05:27:33.091Z,10.10
2018-10-06T05:30:01.655Z,10.33
2018-10-06T05:32:30.208Z,10.20
2018-10-06T05:34:58.787Z,11.13
2018-10-06T05:37:27.320Z,9.73
2018-10-06T05:39:56.596Z,10.67
2018-10-06T05:42:25.162Z,11.27
2018-10-06T05:44:53.790Z,10.57
2018-10-06T05:47:22.321Z,10.80
2018-10-06T05:49:50.903Z,11.87
2018-10-06T05:52:19.609Z,11.17
2018-10-06T05:54:48.169Z,12.73
2018-10-06T05:57:16.765Z,12.27
2018-10-06T05:59:45.344Z,12.83
2018-10-06T06:02:13.895Z,12.67
2018-10-06T06:04:42.475Z,10.67
2018-10-06T06:07:11.084Z,11.07
2018-10-06T06:09:39.668Z,11.77
2018-10-06T06:12:08.366Z,10.97
2018-10-06T06:14:36.951Z,11.40
2018-10-06T06:17:05.582Z,12.87
2018-10-06T06:19:34.140Z,18.77
2018-10-06T06:22:02.716Z,20.63
2018-10-06T06:24:31.388Z,24.73
2018-10-06T06:26:59.973Z,30.37
2018-10-06T06:29:28.528Z,23.17
2018-10-06T06:31:57.304Z,15.60
2018-10-06T06:34:25.844Z,14.50
2018-10-06T06:36:54.443Z,9.90
2018-10-06T06:39:23.601Z,10.37
2018-10-06T06:41:52.167Z,10.27
2018-10-06T06:44:21.432Z,11.27
2018-10-06T06:46:50.634Z,9.37
2018-10-06T06:49:19.200Z,10.97
2018-10-06T06:51:47.789Z,12.77
2018-10-06T06:54:16.392Z,10.57
2018-10-06T06:56:44.960Z,11.10
2018-10-06T06:59:13.520Z,8.43
2018-10-06T07:01:42.104Z,8.43
2018-10-06T07:04:10.656Z,9.47
2018-10-06T07:06:39.340Z,9.47
2018-10-06T07:09:08.543Z,8.90
2018-10-06T07:11:37.146Z,9.70
2018-10-06T07:14:05.694Z,10.73
2018-10-06T07:16:34.286Z,11.50
2018-10-06T07:19:02.878Z,13.17
2018-10-06T07:21:31.525Z,11.70
2018-10-06T07:24:00.184Z,11.23
2018-10-06T07:26:28.882Z,10.47
2018-10-06T07:28:57.416Z,9.57
2018-10-06T07:31:26.307Z,9.40
2018-10-06T07:33:54.877Z,9.37
2018-10-06T07:36:23.454Z,9.80
2018-10-06T07:38:52.025Z,10.00
2018-10-06T07:41:20.701Z,8.97
2018-10-06T07:43:49.283Z,9.07
2018-10-06T07:46:17.892Z,8.10
2018-10-06T07:48:46.476Z,7.23
2018-10-06T07:51:15.056Z,8.60
2018-10-06T07:53:43.593Z,7.90
2018-10-06T07:56:12.268Z,7.40
2018-10-06T07:58:40.838Z,7.87
2018-10-06T08:01:09.607Z,7.57
2018-10-06T08:03:38.251Z,9.67
2018-10-06T08:06:07.032Z,6.60
2018-10-06T08:08:35.584Z,7.40
2018-10-06T08:11:04.133Z,6.67
2018-10-06T08:13:32.888Z,7.50
2018-10-06T08:16:01.477Z,5.90
2018-10-06T08:18:30.102Z,5.90
2018-10-06T08:20:58.670Z,6.90
2018-10-06T08:23:27.864Z,5.83
2018-10-06T08:25:56.610Z,5.70
2018-10-06T08:28:25.752Z,5.70
2018-10-06T08:30:54.356Z,6.13
2018-10-06T08:33:22.999Z,6.37
2018-10-06T08:35:51.565Z,6.20
2018-10-06T08:38:20.106Z,6.57
2018-10-06T08:40:48.675Z,5.60
2018-10-06T08:43:18.109Z,5.77
2018-10-06T08:45:47.335Z,5.33
2018-10-06T08:48:15.876Z,7.70
2018-10-06T08:50:44.443Z,5.00
2018-10-06T08:53:12.979Z,7.13
2018-10-06T08:55:42.114Z,5.53
2018-10-06T08:58:10.653Z,5.20
2018-10-06T09:00:39.221Z,6.17
2018-10-06T09:03:07.764Z,5.10
2018-10-06T09:05:36.299Z,5.30
2018-10-06T09:08:04.951Z,5.30
2018-10-06T09:10:34.300Z,5.50
2018-10-06T09:13:02.852Z,5.83
2018-10-06T09:15:31.438Z,5.90
2018-10-06T09:18:00.013Z,7.67
2018-10-06T09:20:28.565Z,7.83
2018-10-06T09:22:57.094Z,6.20
2018-10-06T09:25:25.651Z,6.13
2018-10-06T09:27:54.177Z,7.73
2018-10-06T09:30:22.746Z,7.67
2018-10-06T09:32:51.298Z,6.60
2018-10-06T09:35:19.861Z,6.77
2018-10-06T09:37:48.404Z,8.20
2018-10-06T09:40:17.080Z,6.70
2018-10-06T09:42:45.783Z,8.67
2018-10-06T09:45:14.530Z,6.17
2018-10-06T09:47:43.063Z,7.60
2018-10-06T09:50:11.650Z,7.07
2018-10-06T09:52:40.245Z,6.17
2018-10-06T09:55:08.829Z,5.13
2018-10-06T09:57:37.380Z,6.90
2018-10-06T10:00:06.058Z,7.87
2018-10-06T10:02:39.956Z,5.43
2018-10-06T10:05:13.835Z,7.33
2018-10-06T10:07:42.360Z,5.67
2018-10-06T10:10:10.986Z,5.60
2018-10-06T10:12:39.641Z,4.50
2018-10-06T10:15:08.191Z,7.07
2018-10-06T10:17:36.800Z,8.43
2018-10-06T10:20:05.414Z,4.40
2018-10-06T10:22:33.978Z,5.07
2018-10-06T10:25:02.605Z,4.10
2018-10-06T10:27:31.135Z,5.00
2018-10-06T10:29:59.696Z,4.27
2018-10-06T10:32:28.275Z,4.57
2018-10-06T10:34:56.820Z,4.23
2018-10-06T10:37:25.483Z,5.47
2018-10-06T10:39:54.019Z,4.20
2018-10-06T10:42:22.575Z,4.63
2018-10-06T10:44:51.157Z,4.50
2018-10-06T10:47:19.701Z,11.00
2018-10-06T10:49:48.254Z,4.20
2018-10-06T10:52:16.793Z,6.30
2018-10-06T10:54:45.349Z,3.83
2018-10-06T10:57:13.895Z,3.90
2018-10-06T10:59:42.452Z,6.33
2018-10-06T11:02:11.048Z,3.53
2018-10-06T11:04:39.647Z,4.47
2018-10-06T11:07:08.253Z,5.00
2018-10-06T11:09:36.943Z,4.97
2018-10-06T11:12:05.488Z,5.73
2018-10-06T11:14:34.061Z,4.27
2018-10-06T11:17:02.647Z,5.37
2018-10-06T11:19:31.211Z,4.33
2018-10-06T11:21:59.786Z,5.50
2018-10-06T11:24:28.368Z,7.37
2018-10-06T11:26:57.295Z,5.93
2018-10-06T11:29:25.830Z,3.80
2018-10-06T11:31:54.409Z,3.93
2018-10-06T11:34:22.988Z,4.80
2018-10-06T11:36:51.534Z,9.77
2018-10-06T11:39:21.301Z,5.13
2018-10-06T11:41:49.901Z,7.50
2018-10-06T11:44:18.480Z,5.90
2018-10-06T11:46:47.055Z,4.83
2018-10-06T11:49:15.645Z,5.50
2018-10-06T11:51:44.174Z,8.20
2018-10-06T11:54:12.727Z,6.33
2018-10-06T11:56:41.318Z,3.67
2018-10-06T11:59:09.936Z,3.93
2018-10-06T12:01:38.627Z,3.37
2018-10-06T12:04:07.343Z,4.00
2018-10-06T12:06:36.562Z,6.30
2018-10-06T12:09:06.984Z,3.27
2018-10-06T12:11:35.889Z,5.70
2018-10-06T12:14:04.447Z,5.33
2018-10-06T12:16:33.038Z,4.07
2018-10-06T12:19:01.821Z,4.93
2018-10-06T12:21:30.397Z,5.57
2018-10-06T12:23:58.991Z,3.00
2018-10-06T12:26:27.551Z,3.13
2018-10-06T12:28:56.173Z,3.43
2018-10-06T12:31:24.756Z,5.57
2018-10-06T12:33:53.351Z,5.43
2018-10-06T12:36:21.911Z,4.10
2018-10-06T12:38:50.474Z,4.03
2018-10-06T12:41:19.053Z,3.23
2018-10-06T12:43:47.922Z,5.58
2018-10-06T12:46:16.561Z,5.08
2018-10-06T12:48:45.103Z,3.00
2018-10-06T12:53:36.022Z,4.08
2018-10-06T12:56:04.625Z,6.42
2018-10-06T12:58:33.176Z,3.02
2018-10-06T13:01:02.326Z,3.47
2018-10-06T13:03:30.891Z,4.62
2018-10-06T13:05:59.532Z,4.28
2018-10-06T13:08:28.118Z,5.33
2018-10-06T13:10:56.747Z,4.92
2018-10-06T13:13:25.534Z,3.27
2018-10-06T13:15:54.076Z,3.97
2018-10-06T13:18:23.361Z,6.00
2018-10-06T13:20:51.915Z,3.47
2018-10-06T13:23:20.485Z,4.70
2018-10-06T13:25:49.084Z,5.05
2018-10-06T13:28:17.783Z,5.08
2018-10-06T13:30:46.334Z,3.33
2018-10-06T13:33:14.884Z,5.47
2018-10-06T13:35:43.675Z,4.12
2018-10-06T13:38:12.248Z,3.22
2018-10-06T13:40:40.795Z,6.00
2018-10-06T13:43:09.526Z,4.40
2018-10-06T13:45:38.106Z,4.22
2018-10-06T13:48:06.712Z,7.25
2018-10-06T13:50:35.428Z,10.53
2018-10-06T13:53:04.071Z,5.00
2018-10-06T13:55:32.702Z,3.37
2018-10-06T13:58:01.326Z,3.37
2018-10-06T14:00:29.877Z,4.33
2018-10-06T14:02:58.435Z,5.80
2018-10-06T14:05:26.994Z,4.03
2018-10-06T14:07:55.669Z,9.33
2018-10-06T14:10:24.329Z,4.43
2018-10-06T14:12:53.153Z,8.70
2018-10-06T14:15:21.745Z,7.40
2018-10-06T14:17:50.339Z,8.97
2018-10-06T14:20:18.975Z,5.83
2018-10-06T14:22:47.547Z,5.27
2018-10-06T14:25:16.086Z,4.30
2018-10-06T14:27:44.677Z,4.53
2018-10-06T14:30:13.218Z,3.30
2018-10-06T14:32:41.854Z,4.33
2018-10-06T14:35:10.412Z,8.63
2018-10-06T14:37:38.970Z,7.23
2018-10-06T14:40:07.665Z,7.20
2018-10-06T14:42:36.258Z,5.23
2018-10-06T14:45:05.122Z,4.17
2018-10-06T14:47:33.917Z,6.53
2018-10-06T14:50:02.780Z,5.60
2018-10-06T14:52:31.787Z,4.40
2018-10-06T14:55:00.469Z,4.63
2018-10-06T14:57:29.068Z,8.03
2018-10-06T14:59:57.615Z,4.20
2018-10-06T15:02:26.199Z,4.30
2018-10-06T15:04:55.415Z,8.50
2018-10-06T15:07:24.396Z,5.87
2018-10-06T15:09:53.768Z,6.27
2018-10-06T15:12:22.813Z,13.23
2018-10-06T15:14:51.343Z,14.77
2018-10-06T15:17:20.020Z,4.83
2018-10-06T15:19:48.580Z,9.17
2018-10-06T15:22:17.169Z,4.60
2018-10-06T15:24:46.320Z,3.30
2018-10-06T15:27:14.934Z,3.13
2018-10-06T15:29:43.683Z,3.00
2018-10-06T15:32:12.223Z,6.17
2018-10-06T15:34:40.860Z,3.80
2018-10-06T15:37:09.442Z,5.87
2018-10-06T15:39:38.034Z,4.40
2018-10-06T15:42:07.488Z,3.10
2018-10-06T15:44:36.062Z,5.13
2018-10-06T15:47:04.793Z,5.70
2018-10-06T15:49:33.388Z,4.40
2018-10-06T15:52:02.150Z,4.67
2018-10-06T15:54:30.980Z,13.93
2018-10-06T15:56:59.544Z,3.80
2018-10-06T15:59:28.352Z,5.27
2018-10-06T16:01:56.878Z,5.93
2018-10-06T16:04:25.441Z,4.10
2018-10-06T16:06:53.997Z,10.17
2018-10-06T16:09:22.566Z,5.50
2018-10-06T16:11:51.124Z,5.63
2018-10-06T16:14:19.736Z,8.50
2018-10-06T16:16:48.332Z,4.67
2018-10-06T16:19:17.072Z,6.07
2018-10-06T16:21:45.614Z,5.07
2018-10-06T16:24:14.740Z,6.37
2018-10-06T16:26:43.288Z,7.80
2018-10-06T16:29:11.992Z,5.73
2018-10-06T16:31:41.153Z,5.33
2018-10-06T16:34:09.747Z,4.83
2018-10-06T16:36:38.318Z,4.80
2018-10-06T16:39:07.696Z,7.93
2018-10-06T16:41:36.602Z,4.70
2018-10-06T16:44:05.181Z,6.43
2018-10-06T16:46:33.853Z,8.90
2018-10-06T16:49:02.541Z,8.63
2018-10-06T16:51:31.231Z,9.20
2018-10-06T16:53:59.824Z,6.90
2018-10-06T16:56:28.414Z,13.23
2018-10-06T16:58:57.040Z,9.17
2018-10-06T17:01:26.303Z,15.37
2018-10-06T17:03:54.850Z,26.23
2018-10-06T17:06:23.664Z,22.90
2018-10-06T17:08:52.159Z,35.53
2018-10-06T17:11:20.862Z,36.20
2018-10-06T17:13:49.828Z,31.77
2018-10-06T17:16:18.417Z,30.07
2018-10-06T17:18:46.995Z,37.90
2018-10-06T17:21:15.755Z,27.50
2018-10-06T17:23:44.347Z,35.53
2018-10-06T17:26:12.901Z,42.93
2018-10-06T17:28:41.613Z,20.67
2018-10-06T17:31:10.422Z,22.73
2018-10-06T17:33:38.977Z,26.80
2018-10-06T17:36:07.550Z,26.13
2018-10-06T17:38:36.284Z,29.40
2018-10-06T17:41:04.945Z,29.93
2018-10-06T17:43:33.565Z,28.43
2018-10-06T17:46:02.191Z,32.40
2018-10-06T17:48:30.817Z,32.07
2018-10-06T17:50:59.708Z,28.70
2018-10-06T17:53:28.391Z,20.53
2018-10-06T17:55:57.007Z,33.20
2018-10-06T17:58:25.583Z,26.47
2018-10-06T18:00:54.260Z,36.60
2018-10-06T18:03:22.832Z,26.73
2018-10-06T18:05:51.424Z,25.20
2018-10-06T18:08:19.995Z,25.67
2018-10-06T18:10:48.572Z,22.77
2018-10-06T18:13:17.121Z,20.23
2018-10-06T18:15:45.695Z,14.50
2018-10-06T18:18:16.876Z,11.77
2018-10-06T18:20:45.658Z,10.07
2018-10-06T18:23:14.048Z,11.47
2018-10-06T18:25:42.631Z,12.70
2018-10-06T18:28:11.219Z,11.20
2018-10-06T18:30:39.821Z,11.10
2018-10-06T18:33:08.583Z,10.53
2018-10-06T18:35:37.160Z,9.67
2018-10-06T18:38:05.706Z,9.30
2018-10-06T18:40:34.312Z,8.37
2018-10-06T18:43:03.222Z,10.10
2018-10-06T18:45:32.160Z,12.83
2018-10-06T18:48:01.044Z,12.10
2018-10-06T18:50:30.262Z,19.37
2018-10-06T18:52:58.936Z,25.17
2018-10-06T18:55:27.508Z,17.50
2018-10-06T18:57:56.765Z,16.80
2018-10-06T19:00:25.593Z,23.03
2018-10-06T19:02:55.581Z,21.77
2018-10-06T19:05:24.207Z,19.00
2018-10-06T19:07:52.760Z,18.37
2018-10-06T19:10:21.720Z,18.37
2018-10-06T19:12:50.803Z,15.60
2018-10-06T19:15:19.629Z,14.13
2018-10-06T19:17:48.151Z,12.57
2018-10-06T19:20:16.919Z,12.98
2018-10-06T19:22:46.200Z,12.07
2018-10-06T19:25:15.681Z,13.80
2018-10-06T19:27:44.257Z,14.70
2018-10-06T19:30:12.892Z,14.87
2018-10-06T19:32:41.509Z,15.43
2018-10-06T19:35:10.108Z,16.53
2018-10-06T19:37:38.854Z,13.57
2018-10-06T19:40:08.567Z,12.73
2018-10-06T19:42:38.739Z,14.87
2018-10-06T19:45:07.364Z,14.93
2018-10-06T19:47:35.941Z,11.77
2018-10-06T19:50:04.833Z,12.90
2018-10-06T19:52:33.740Z,15.27
2018-10-06T19:55:02.325Z,14.10
2018-10-06T19:57:30.940Z,19.80
2018-10-06T19:59:59.510Z,17.83
2018-10-06T20:02:28.113Z,18.93
2018-10-06T20:04:56.693Z,13.30
2018-10-06T20:07:25.239Z,15.00
2018-10-06T20:09:53.837Z,15.77
2018-10-06T20:12:22.422Z,14.07
2018-10-06T20:14:51.003Z,13.13
2018-10-06T20:17:19.588Z,12.80
2018-10-06T20:19:48.139Z,14.17
2018-10-06T20:22:16.859Z,14.97
2018-10-06T20:24:46.992Z,11.43
2018-10-06T20:27:16.770Z,10.63
2018-10-06T20:29:45.376Z,9.57
2018-10-06T20:32:14.111Z,10.67
2018-10-06T20:34:42.692Z,12.93
2018-10-06T20:37:11.250Z,12.93
2018-10-06T20:39:40.634Z,14.47
2018-10-06T20:42:09.186Z,13.30
2018-10-06T20:44:37.719Z,15.33
2018-10-06T20:47:06.311Z,10.43
2018-10-06T20:49:35.461Z,10.07
2018-10-06T20:52:04.886Z,10.40
2018-10-06T20:54:33.431Z,11.17
2018-10-06T20:57:02.014Z,12.93
2018-10-06T20:59:30.576Z,10.73
2018-10-06T21:01:59.166Z,14.10
2018-10-06T21:04:27.722Z,10.93
2018-10-06T21:06:56.259Z,11.43
2018-10-06T21:09:25.146Z,9.70
2018-10-06T21:11:53.737Z,9.10
2018-10-06T21:14:22.301Z,12.27
2018-10-06T21:16:50.874Z,10.33
2018-10-06T21:19:19.454Z,10.67
2018-10-06T21:21:48.010Z,12.50
2018-10-06T21:24:17.040Z,12.20
2018-10-06T21:26:45.617Z,12.07
2018-10-06T21:29:14.314Z,11.17
2018-10-06T21:31:43.025Z,11.53
2018-10-06T21:34:11.750Z,16.77
2018-10-06T21:36:40.288Z,12.47
2018-10-06T21:39:09.628Z,12.47
2018-10-06T21:41:38.392Z,10.87
2018-10-06T21:44:06.964Z,13.63
2018-10-06T21:46:35.536Z,11.67
2018-10-06T21:49:04.124Z,12.40
2018-10-06T21:51:32.705Z,14.57
2018-10-06T21:54:01.309Z,12.70
2018-10-06T21:56:29.890Z,14.83
2018-10-06T21:58:58.490Z,16.17
2018-10-06T22:01:27.034Z,12.03
2018-10-06T22:03:55.595Z,11.57
2018-10-06T22:06:24.324Z,12.70
2018-10-06T22:08:54.652Z,13.90
2018-10-06T22:11:24.141Z,12.50
2018-10-06T22:13:52.701Z,15.30
2018-10-06T22:16:21.527Z,11.97
2018-10-06T22:18:50.173Z,14.17
2018-10-06T22:21:18.761Z,12.50
2018-10-06T22:23:47.851Z,13.73
2018-10-06T22:26:17.252Z,13.05
2018-10-06T22:28:45.847Z,13.40
2018-10-06T22:31:14.399Z,14.17
2018-10-06T22:33:42.979Z,12.03
2018-10-06T22:36:11.578Z,13.30
2018-10-06T22:38:42.447Z,12.20
2018-10-06T22:41:11.803Z,14.47
2018-10-06T22:43:40.444Z,11.07
2018-10-06T22:46:10.150Z,11.53
2018-10-06T22:48:38.741Z,10.67
2018-10-06T22:51:07.697Z,11.03
2018-10-06T22:53:36.622Z,15.83
2018-10-06T22:56:05.220Z,13.13
2018-10-06T22:58:33.794Z,14.37
2018-10-06T23:01:02.393Z,12.30
2018-10-06T23:03:30.995Z,11.53
2018-10-06T23:05:59.539Z,10.83
2018-10-06T23:08:28.100Z,11.33
2018-10-06T23:10:56.742Z,12.50
2018-10-06T23:13:25.328Z,13.13
2018-10-06T23:15:53.918Z,12.60
2018-10-06T23:18:22.495Z,11.43
2018-10-06T23:20:51.085Z,16.10
2018-10-06T23:23:19.656Z,12.00
2018-10-06T23:25:48.353Z,13.47
2018-10-06T23:28:16.922Z,12.43
2018-10-06T23:30:45.493Z,11.90
2018-10-06T23:33:14.047Z,12.23
2018-10-06T23:35:42.615Z,12.10
2018-10-06T23:38:11.231Z,11.33
2018-10-06T23:40:39.817Z,10.40
2018-10-06T23:43:08.383Z,10.77
2018-10-06T23:45:37.351Z,10.37
2018-10-06T23:48:05.965Z,10.60
2018-10-06T23:50:34.506Z,11.27
2018-10-06T23:53:03.070Z,11.10
2018-10-06T23:55:31.610Z,12.20
2018-10-06T23:58:00.187Z,12.30
